Time;durP1;ratioP1;P1;durP2;ratioP2;P2;SDS_P1;SDS_P2;PMS_P1;PMS_P2;Temp;Humidity;BMP_temperature;BMP_pressure;BME280_temperature;BME280_humidity;BME280_pressure;Samples;Min_cycle;Max_cycle;Signal;HPM_P1;HPM_P2
2021/05/13 00:01:09;;;;;;;13.13;10.40;;;11.60;99.90;;;;;;5012691;28;20562;-73
2021/05/13 00:03:34;;;;;;;16.87;10.50;;;11.50;99.90;;;;;;5011432;28;20552;-73
2021/05/13 00:06:00;;;;;;;16.17;10.93;;;11.50;99.90;;;;;;4995146;28;20246;-73
2021/05/13 00:08:26;;;;;;;15.43;11.23;;;11.40;99.90;;;;;;5012077;28;20646;-73
2021/05/13 00:10:51;;;;;;;15.57;11.67;;;11.40;99.90;;;;;;4994916;28;20533;-73
2021/05/13 00:13:17;;;;;;;12.30;10.97;;;11.40;99.90;;;;;;4994686;28;20202;-73
2021/05/13 00:15:43;;;;;;;14.70;11.07;;;11.30;99.90;;;;;;5011167;28;20175;-73
2021/05/13 00:18:08;;;;;;;14.73;11.43;;;11.30;99.90;;;;;;4994715;28;20606;-73
2021/05/13 00:20:42;;;;;;;13.63;11.07;;;11.40;99.90;;;;;;5012116;28;20218;-73
2021/05/13 00:23:07;;;;;;;14.90;11.13;;;11.30;99.90;;;;;;5012313;28;20172;-73
2021/05/13 00:25:33;;;;;;;12.40;10.33;;;11.20;99.90;;;;;;5011003;28;20237;-73
2021/05/13 00:27:59;;;;;;;13.93;10.70;;;11.20;99.90;;;;;;5010863;28;20682;-73
2021/05/13 00:30:24;;;;;;;12.90;10.37;;;11.20;99.90;;;;;;4994509;28;20179;-73
2021/05/13 00:32:50;;;;;;;14.10;10.67;;;11.20;99.90;;;;;;4978381;28;20234;-73
2021/05/13 00:35:17;;;;;;;13.77;10.40;;;11.10;99.90;;;;;;5011039;28;20183;-73
2021/05/13 00:37:42;;;;;;;12.40;10.40;;;11.10;99.90;;;;;;4994345;28;20705;-73
2021/05/13 00:40:09;;;;;;;12.97;9.77;;;11.10;99.90;;;;;;4994364;28;20178;-73
2021/05/13 00:42:34;;;;;;;12.83;9.87;;;11.10;99.90;;;;;;4994685;28;20234;-73
2021/05/13 00:45:00;;;;;;;14.67;9.07;;;11.10;99.90;;;;;;4978303;28;20587;-73
2021/05/13 00:47:27;;;;;;;13.83;9.67;;;11.10;99.90;;;;;;4979579;28;20209;-73
2021/05/13 00:49:53;;;;;;;16.17;9.77;;;11.10;99.90;;;;;;4998453;28;20670;-73
2021/05/13 00:52:20;;;;;;;14.47;9.60;;;11.20;99.90;;;;;;5014894;28;20198;-73
2021/05/13 00:54:46;;;;;;;13.77;9.90;;;11.20;99.90;;;;;;4998402;28;20167;-73
2021/05/13 00:57:12;;;;;;;15.60;9.27;;;11.20;99.90;;;;;;4998522;28;20294;-73
2021/05/13 00:59:39;;;;;;;12.73;8.90;;;11.20;99.90;;;;;;5014922;28;20576;-73
2021/05/13 01:02:05;;;;;;;10.27;8.47;;;11.20;99.90;;;;;;4998525;28;20182;-73
2021/05/13 01:04:31;;;;;;;15.17;8.97;;;11.30;99.90;;;;;;4998436;28;20178;-73
2021/05/13 01:06:56;;;;;;;12.17;9.40;;;11.30;99.90;;;;;;4998158;28;20760;-73
2021/05/13 01:09:23;;;;;;;12.03;8.60;;;11.30;99.90;;;;;;5013977;28;20589;-74
2021/05/13 01:11:54;;;;;;;13.27;9.03;;;11.30;99.90;;;;;;5015774;28;20174;-73
2021/05/13 01:16:52;;;;;;;10.87;9.27;;;11.20;99.90;;;;;;5015642;28;20205;-73
2021/05/13 01:19:17;;;;;;;13.80;9.37;;;11.20;99.90;;;;;;5014244;28;20185;-73
2021/05/13 01:21:44;;;;;;;9.83;8.30;;;11.20;99.90;;;;;;4998043;28;20172;-73
2021/05/13 01:24:10;;;;;;;11.80;8.40;;;11.20;99.90;;;;;;4998038;28;20273;-73
2021/05/13 01:26:35;;;;;;;14.77;9.17;;;11.20;99.90;;;;;;5014200;28;20285;-73
2021/05/13 01:29:01;;;;;;;12.80;9.40;;;11.10;99.90;;;;;;5014181;28;20273;-73
2021/05/13 01:31:27;;;;;;;14.50;9.40;;;11.10;99.90;;;;;;4981649;28;20187;-73
2021/05/13 01:33:52;;;;;;;10.37;8.83;;;11.10;99.90;;;;;;5014002;28;20675;-73
2021/05/13 01:36:18;;;;;;;12.00;8.47;;;11.10;99.90;;;;;;4997283;28;20215;-73
2021/05/13 01:38:43;;;;;;;12.53;9.33;;;11.00;99.90;;;;;;4997627;28;20205;-73
2021/05/13 01:41:09;;;;;;;14.07;8.70;;;11.00;99.90;;;;;;4981230;28;20546;-73
2021/05/13 01:43:34;;;;;;;10.40;8.50;;;11.00;99.90;;;;;;4981430;28;20180;-73
2021/05/13 01:46:00;;;;;;;11.20;8.53;;;11.00;99.90;;;;;;4997247;28;20207;-73
2021/05/13 01:48:27;;;;;;;13.47;9.53;;;10.90;99.90;;;;;;5013783;28;20175;-73
2021/05/13 01:50:53;;;;;;;13.53;9.73;;;10.90;99.90;;;;;;5013739;28;20640;-73
2021/05/13 01:53:18;;;;;;;15.33;9.50;;;10.80;99.90;;;;;;4980930;28;20210;-73
2021/05/13 01:55:44;;;;;;;12.40;9.53;;;10.80;99.90;;;;;;4997365;28;20186;-73
2021/05/13 01:58:10;;;;;;;11.73;9.37;;;10.80;99.90;;;;;;4997174;28;20187;-73
2021/05/13 02:00:37;;;;;;;15.07;9.83;;;10.70;99.90;;;;;;4996780;28;20532;-73
2021/05/13 02:03:03;;;;;;;10.33;9.07;;;10.80;99.90;;;;;;5013388;28;20183;-73
2021/05/13 02:05:29;;;;;;;13.07;9.37;;;10.70;99.90;;;;;;4997161;28;20194;-73
2021/05/13 02:07:55;;;;;;;11.70;9.23;;;10.70;99.90;;;;;;4980876;28;20268;-73
2021/05/13 02:10:20;;;;;;;11.57;10.13;;;10.70;99.90;;;;;;4997010;28;20192;-73
2021/05/13 02:12:46;;;;;;;11.67;9.77;;;10.60;99.90;;;;;;4996968;28;20246;-73
2021/05/13 02:15:13;;;;;;;12.70;10.30;;;10.50;99.90;;;;;;5013488;28;20186;-73
2021/05/13 02:17:39;;;;;;;15.03;10.37;;;10.50;99.90;;;;;;4996875;28;20205;-73
2021/05/13 02:20:06;;;;;;;14.17;10.57;;;10.50;99.90;;;;;;4996923;28;20573;-73
2021/05/13 02:22:31;;;;;;;14.93;10.10;;;10.60;99.90;;;;;;5013094;28;20187;-73
2021/05/13 02:24:57;;;;;;;12.27;10.17;;;10.50;99.90;;;;;;4996877;28;20209;-73
2021/05/13 02:27:22;;;;;;;13.23;10.93;;;10.50;99.90;;;;;;5013177;28;20692;-73
2021/05/13 02:29:48;;;;;;;13.80;11.17;;;10.50;99.90;;;;;;4996709;28;20186;-73
2021/05/13 02:32:13;;;;;;;13.00;10.67;;;10.40;99.90;;;;;;5012699;28;20194;-73
2021/05/13 02:34:39;;;;;;;12.33;10.93;;;10.40;99.90;;;;;;5012974;28;20174;-73
2021/05/13 02:37:04;;;;;;;13.03;11.13;;;10.50;99.90;;;;;;4996787;28;20218;-73
2021/05/13 02:39:30;;;;;;;13.20;10.90;;;10.50;99.90;;;;;;5012817;28;20269;-73
2021/05/13 02:41:56;;;;;;;13.37;11.43;;;10.50;99.90;;;;;;5014092;28;20260;-73
2021/05/13 02:44:21;;;;;;;16.10;11.53;;;10.50;99.90;;;;;;5012855;28;20245;-73
2021/05/13 02:46:47;;;;;;;12.27;11.00;;;10.40;99.90;;;;;;5012569;28;20210;-73
2021/05/13 02:49:12;;;;;;;14.20;11.30;;;10.40;99.90;;;;;;4979962;28;20389;-73
2021/05/13 02:51:38;;;;;;;12.47;10.57;;;10.30;99.90;;;;;;4996447;28;20183;-73
2021/05/13 02:54:03;;;;;;;13.13;11.03;;;10.30;99.90;;;;;;5011772;28;20215;-73
2021/05/13 02:56:29;;;;;;;15.63;11.73;;;10.30;99.90;;;;;;5013538;28;20249;-74
2021/05/13 02:58:55;;;;;;;15.87;11.80;;;10.40;99.90;;;;;;4996165;28;20643;-73
2021/05/13 03:01:25;;;;;;;11.87;10.67;;;10.40;99.90;;;;;;4996443;28;20704;-73
2021/05/13 03:03:51;;;;;;;13.90;11.33;;;10.40;99.90;;;;;;5012254;28;20182;-73
2021/05/13 03:06:16;;;;;;;15.83;11.97;;;10.40;99.90;;;;;;5012454;28;20207;-73
2021/05/13 03:08:42;;;;;;;16.20;11.70;;;10.40;99.90;;;;;;5012233;28;20210;-73
2021/05/13 03:11:09;;;;;;;12.70;11.40;;;10.30;99.90;;;;;;5013587;28;20175;-73
2021/05/13 03:13:35;;;;;;;14.20;12.00;;;10.30;99.90;;;;;;4995742;28;20247;-73
2021/05/13 03:16:00;;;;;;;14.03;12.53;;;10.30;99.90;;;;;;4995980;28;20250;-73
2021/05/13 03:18:28;;;;;;;15.00;11.67;;;10.30;99.90;;;;;;5012183;28;20564;-73
2021/05/13 03:21:02;;;;;;;15.23;11.70;;;10.30;99.90;;;;;;4995998;28;20565;-73
2021/05/13 03:23:37;;;;;;;15.57;11.87;;;10.20;99.90;;;;;;5012058;28;20184;-73
2021/05/13 03:26:03;;;;;;;16.00;11.97;;;10.20;99.90;;;;;;4997265;28;20194;-73
2021/05/13 03:28:28;;;;;;;14.00;11.17;;;10.10;99.90;;;;;;5012093;28;20178;-73
2021/05/13 03:30:54;;;;;;;18.80;13.07;;;10.20;99.90;;;;;;5011398;28;20213;-73
2021/05/13 03:33:20;;;;;;;16.40;12.10;;;10.10;99.90;;;;;;5028301;28;20293;-73
2021/05/13 03:35:45;;;;;;;14.50;12.30;;;10.10;99.90;;;;;;4995450;28;20179;-73
2021/05/13 03:38:11;;;;;;;13.23;11.87;;;10.00;99.90;;;;;;4995390;28;20175;-73
2021/05/13 03:40:37;;;;;;;14.87;12.13;;;10.00;99.90;;;;;;5028054;28;20186;-73
2021/05/13 03:43:03;;;;;;;15.30;12.57;;;10.00;99.90;;;;;;5011712;28;20183;-73
2021/05/13 03:45:28;;;;;;;14.10;11.73;;;10.00;99.90;;;;;;4995313;28;20174;-73
2021/05/13 03:47:54;;;;;;;14.37;11.97;;;10.00;99.90;;;;;;4995196;28;20205;-73
2021/05/13 03:50:20;;;;;;;13.97;11.90;;;9.90;99.90;;;;;;4995039;28;20651;-73
2021/05/13 03:52:45;;;;;;;14.70;12.70;;;9.90;99.90;;;;;;4995233;28;20255;-73
2021/05/13 03:55:11;;;;;;;16.03;11.93;;;9.90;99.90;;;;;;5011569;28;20166;-73
2021/05/13 03:57:38;;;;;;;13.37;11.90;;;9.90;99.90;;;;;;4995234;28;20194;-73
2021/05/13 04:00:08;;;;;;;12.97;11.53;;;9.90;99.90;;;;;;5011255;28;20265;-73
2021/05/13 04:02:34;;;;;;;14.67;12.03;;;9.90;99.90;;;;;;5011373;28;20226;-73
2021/05/13 04:05:00;;;;;;;15.17;11.97;;;9.90;99.90;;;;;;4994994;28;20661;-73
2021/05/13 04:07:30;;;;;;;14.40;12.43;;;9.90;99.90;;;;;;5011385;28;20206;-73
2021/05/13 04:09:56;;;;;;;14.23;12.73;;;9.80;99.90;;;;;;5011143;28;20556;-73
2021/05/13 04:12:22;;;;;;;13.40;12.00;;;9.80;99.90;;;;;;4994711;28;20236;-73
2021/05/13 04:14:48;;;;;;;14.53;12.97;;;9.90;99.90;;;;;;5011176;28;20213;-73
2021/05/13 04:17:13;;;;;;;17.97;13.80;;;9.90;99.90;;;;;;5012424;28;20272;-73
2021/05/13 04:19:39;;;;;;;19.47;14.73;;;9.90;99.90;;;;;;4994757;28;20178;-73
2021/05/13 04:22:04;;;;;;;19.13;14.17;;;9.90;99.90;;;;;;5011691;28;20171;-73
2021/05/13 04:24:30;;;;;;;19.17;14.93;;;9.90;99.90;;;;;;4994880;28;20178;-73
2021/05/13 04:26:56;;;;;;;16.97;13.40;;;9.90;99.90;;;;;;5012141;28;20237;-73
2021/05/13 04:29:21;;;;;;;16.63;13.53;;;10.00;99.90;;;;;;4994439;28;20228;-73
2021/05/13 04:31:47;;;;;;;15.70;12.93;;;10.00;99.90;;;;;;4994756;28;20179;-73
2021/05/13 04:34:12;;;;;;;15.63;12.60;;;10.00;99.90;;;;;;5010737;28;20201;-73
2021/05/13 04:36:38;;;;;;;18.27;13.23;;;10.10;99.90;;;;;;5011965;28;20238;-73
2021/05/13 04:39:05;;;;;;;15.80;12.33;;;10.20;99.90;;;;;;5066434;22;20241;-76
2021/05/13 04:41:33;;;;;;;15.93;12.93;;;10.30;99.90;;;;;;5017931;28;20383;-76
2021/05/13 04:44:01;;;;;;;15.03;11.97;;;10.30;99.90;;;;;;5034140;28;20213;-76
2021/05/13 04:46:30;;;;;;;16.23;12.77;;;10.40;99.90;;;;;;5018212;28;20181;-75
2021/05/13 04:49:15;;;;;;;17.33;12.90;;;10.60;99.90;;;;;;5050221;28;20193;-76
2021/05/13 04:51:41;;;;;;;16.90;12.70;;;10.70;99.90;;;;;;5051488;28;20205;-76
2021/05/13 04:54:08;;;;;;;15.63;12.27;;;10.90;99.90;;;;;;5050546;28;20212;-76
2021/05/13 04:56:35;;;;;;;16.90;12.63;;;11.00;99.90;;;;;;5034479;28;20201;-76
2021/05/13 04:59:01;;;;;;;15.17;12.20;;;11.10;99.90;;;;;;5050877;28;20239;-76
2021/05/13 05:01:27;;;;;;;14.30;11.97;;;11.30;99.90;;;;;;5050977;28;20178;-76
2021/05/13 05:03:52;;;;;;;15.13;11.17;;;11.40;99.90;;;;;;5033921;28;20675;-76
2021/05/13 05:06:18;;;;;;;14.90;12.43;;;11.60;99.90;;;;;;5052040;28;20177;-76
2021/05/13 05:08:44;;;;;;;15.43;12.43;;;11.70;99.90;;;;;;5050522;28;20617;-76
2021/05/13 05:11:11;;;;;;;15.97;12.43;;;11.90;99.90;;;;;;5034193;28;20197;-76
2021/05/13 05:13:37;;;;;;;16.60;13.47;;;12.00;99.90;;;;;;5027518;28;20202;-76
2021/05/13 05:16:04;;;;;;;15.70;13.10;;;12.10;99.90;;;;;;5023041;28;20174;-76
2021/05/13 05:18:32;;;;;;;17.03;14.27;;;12.20;99.90;;;;;;5009119;28;20675;-76
2021/05/13 05:20:59;;;;;;;16.63;13.83;;;12.30;99.90;;;;;;5011230;28;20174;-76
2021/05/13 05:23:27;;;;;;;18.17;14.27;;;12.40;99.90;;;;;;5029904;28;20230;-76
2021/05/13 05:25:53;;;;;;;16.27;13.63;;;12.50;99.90;;;;;;5048903;28;20170;-76
2021/05/13 05:28:19;;;;;;;16.77;13.10;;;12.50;99.90;;;;;;5047558;28;20194;-76
2021/05/13 05:30:45;;;;;;;15.97;13.13;;;12.80;99.90;;;;;;5049991;28;20174;-76
2021/05/13 05:33:10;;;;;;;16.93;13.13;;;12.80;99.90;;;;;;5047734;28;20199;-76
2021/05/13 05:35:37;;;;;;;14.33;12.83;;;13.10;99.90;;;;;;5019882;28;20178;-76
2021/05/13 05:38:03;;;;;;;19.90;13.37;;;13.20;99.90;;;;;;5048703;28;20217;-76
2021/05/13 05:40:29;;;;;;;17.37;13.30;;;13.20;99.90;;;;;;5050839;28;20397;-76
2021/05/13 05:42:54;;;;;;;15.80;13.40;;;13.30;99.90;;;;;;5053667;28;20182;-76
2021/05/13 05:45:20;;;;;;;14.50;12.90;;;13.50;99.90;;;;;;5055569;28;20250;-76
2021/05/13 05:47:47;;;;;;;14.30;12.80;;;13.90;99.90;;;;;;5053497;28;20692;-76
2021/05/13 05:50:13;;;;;;;14.87;12.50;;;14.50;99.90;;;;;;5014084;28;20240;-76
2021/05/13 05:52:38;;;;;;;13.80;11.97;;;14.90;99.90;;;;;;5053149;28;20198;-76
2021/05/13 05:55:05;;;;;;;14.83;12.27;;;15.10;99.90;;;;;;5011293;28;20174;-77
2021/05/13 05:57:31;;;;;;;14.60;11.70;;;15.00;99.90;;;;;;5029012;28;20194;-77
2021/05/13 05:59:58;;;;;;;13.50;12.10;;;15.30;99.90;;;;;;5050005;28;20355;-76
2021/05/13 06:02:26;;;;;;;16.30;12.83;;;15.80;99.90;;;;;;5033746;28;20179;-77
2021/05/13 06:04:53;;;;;;;15.27;12.03;;;15.90;99.90;;;;;;5028427;28;20247;-76
2021/05/13 06:07:19;;;;;;;13.70;12.17;;;15.30;99.90;;;;;;5049601;28;20206;-76
2021/05/13 06:09:46;;;;;;;15.63;13.43;;;15.00;99.90;;;;;;5022725;28;20174;-77
2021/05/13 06:12:12;;;;;;;18.83;14.60;;;14.80;99.90;;;;;;5044147;28;20719;-76
2021/05/13 06:14:38;;;;;;;17.43;15.17;;;14.80;99.90;;;;;;5051466;28;20553;-76
2021/05/13 06:17:04;;;;;;;17.60;14.77;;;14.70;99.90;;;;;;5033632;28;20175;-76
2021/05/13 06:19:29;;;;;;;18.87;15.67;;;14.70;99.90;;;;;;5050069;28;20167;-76
2021/05/13 06:21:56;;;;;;;17.20;15.23;;;14.60;99.90;;;;;;5023775;28;20644;-76
2021/05/13 06:24:22;;;;;;;18.47;15.70;;;14.70;99.90;;;;;;5018892;28;20220;-75
2021/05/13 06:27:01;;;;;;;17.73;15.50;;;14.90;99.90;;;;;;5018668;28;20179;-76
2021/05/13 06:29:28;;;;;;;18.83;15.93;;;15.10;99.90;;;;;;5031891;28;20175;-76
2021/05/13 06:31:54;;;;;;;18.03;15.67;;;15.10;99.90;;;;;;5018784;28;20691;-76
2021/05/13 06:34:20;;;;;;;18.67;16.17;;;15.10;99.90;;;;;;5036048;28;20568;-76
2021/05/13 06:36:46;;;;;;;21.70;16.17;;;15.20;99.90;;;;;;5052747;28;20179;-76
2021/05/13 06:39:12;;;;;;;18.13;16.23;;;15.50;99.90;;;;;;5019012;28;20214;-76
2021/05/13 06:41:40;;;;;;;18.77;16.77;;;15.70;99.90;;;;;;5052920;28;20249;-76
2021/05/13 06:44:06;;;;;;;20.97;16.43;;;15.70;99.90;;;;;;5026393;28;20175;-82
2021/05/13 06:46:31;;;;;;;22.17;16.40;;;15.70;99.90;;;;;;5022044;28;20274;-81
2021/05/13 06:48:57;;;;;;;19.40;15.63;;;15.80;99.90;;;;;;5016706;28;20222;-80
2021/05/13 06:51:23;;;;;;;18.57;15.20;;;15.90;99.90;;;;;;5046333;28;20200;-80
2021/05/13 06:53:48;;;;;;;16.47;14.77;;;16.40;99.90;;;;;;5041134;28;20688;-80
2021/05/13 06:56:15;;;;;;;16.97;15.10;;;16.90;99.90;;;;;;5046693;28;20178;-78
2021/05/13 06:58:43;;;;;;;16.83;15.10;;;17.40;99.90;;;;;;5027306;28;20198;-79
2021/05/13 07:01:09;;;;;;;17.57;15.57;;;18.00;99.90;;;;;;5027661;28;20177;-79
2021/05/13 07:03:37;;;;;;;16.33;13.50;;;18.70;99.90;;;;;;5024832;28;20220;-78
2021/05/13 07:06:03;;;;;;;16.47;14.77;;;18.80;99.90;;;;;;5025483;28;20212;-80
2021/05/13 07:08:29;;;;;;;14.93;13.33;;;18.90;99.90;;;;;;5024823;28;20206;-78
2021/05/13 07:10:56;;;;;;;17.43;13.67;;;18.60;99.90;;;;;;5058646;28;20177;-79
2021/05/13 07:13:22;;;;;;;17.80;13.03;;;18.20;99.90;;;;;;5042787;28;20250;-79
2021/05/13 07:15:52;;;;;;;15.23;13.63;;;18.10;99.90;;;;;;5056121;28;20212;-78
2021/05/13 07:18:18;;;;;;;16.20;13.80;;;18.00;99.90;;;;;;5032503;28;20195;-78
2021/05/13 07:20:44;;;;;;;16.33;13.27;;;18.10;99.90;;;;;;5022603;28;20171;-78
2021/05/13 07:23:10;;;;;;;14.07;12.30;;;18.30;99.90;;;;;;5057058;28;20208;-78
2021/05/13 07:25:37;;;;;;;13.53;12.07;;;18.20;99.90;;;;;;5027540;28;20179;-78
2021/05/13 07:28:03;;;;;;;14.77;12.53;;;18.30;99.90;;;;;;5017121;28;20739;-78
2021/05/13 07:30:31;;;;;;;14.90;12.33;;;18.60;99.90;;;;;;5052561;28;20178;-81
2021/05/13 07:32:56;;;;;;;13.47;12.07;;;19.50;99.90;;;;;;5047786;28;20225;-80
2021/05/13 07:35:23;;;;;;;13.83;11.77;;;20.30;99.90;;;;;;5010569;28;20653;-78
2021/05/13 07:37:50;;;;;;;12.70;10.83;;;20.50;99.90;;;;;;5035697;28;20209;-78
2021/05/13 07:40:20;;;;;;;13.27;11.97;;;19.60;99.90;;;;;;5036676;28;20660;-80
2021/05/13 07:42:46;;;;;;;13.47;11.10;;;19.60;99.90;;;;;;5021694;28;20637;-80
2021/05/13 07:45:12;;;;;;;14.07;11.70;;;19.40;99.90;;;;;;5021357;28;20188;-80
2021/05/13 07:47:38;;;;;;;12.60;11.33;;;19.00;99.90;;;;;;5024953;28;20202;-80
2021/05/13 07:50:08;;;;;;;12.57;11.23;;;19.00;99.90;;;;;;5043891;28;20178;-78
2021/05/13 07:52:34;;;;;;;15.07;11.13;;;19.20;99.90;;;;;;5026714;28;20202;-78
2021/05/13 07:55:00;;;;;;;13.07;9.90;;;19.80;99.90;;;;;;5027148;28;20205;-78
2021/05/13 07:57:26;;;;;;;13.93;11.03;;;20.30;99.90;;;;;;5024478;28;20193;-79
2021/05/13 07:59:52;;;;;;;13.10;10.47;;;20.30;99.90;;;;;;5026910;28;20170;-79
2021/05/13 08:02:17;;;;;;;12.63;10.83;;;20.10;99.90;;;;;;5027893;28;20181;-78
2021/05/13 08:04:43;;;;;;;13.03;11.07;;;20.20;99.90;;;;;;5041158;28;20188;-78
2021/05/13 08:07:09;;;;;;;12.50;10.10;;;20.20;99.90;;;;;;5055531;28;20213;-77
2021/05/13 08:09:35;;;;;;;12.80;10.63;;;20.60;99.90;;;;;;5027794;28;20197;-79
2021/05/13 08:12:01;;;;;;;10.63;9.50;;;20.70;99.90;;;;;;5027892;28;20724;-80
2021/05/13 08:14:28;;;;;;;13.80;9.77;;;20.80;99.90;;;;;;5044460;28;20940;-79
2021/05/13 08:16:54;;;;;;;12.67;10.23;;;21.00;99.90;;;;;;5025467;28;20185;-81
2021/05/13 08:19:20;;;;;;;12.47;10.27;;;21.10;99.90;;;;;;5041508;28;20677;-79
2021/05/13 08:21:45;;;;;;;12.30;9.43;;;21.10;99.90;;;;;;5026805;28;20190;-81
2021/05/13 08:24:11;;;;;;;11.27;9.33;;;21.00;99.90;;;;;;5026958;28;20539;-81
2021/05/13 08:26:36;;;;;;;10.77;8.97;;;20.50;99.90;;;;;;5040743;28;20189;-79
2021/05/13 08:29:03;;;;;;;12.10;9.53;;;20.40;99.90;;;;;;5038469;28;20210;-82
2021/05/13 08:31:29;;;;;;;12.03;9.13;;;20.30;99.90;;;;;;5020845;28;20189;-79
2021/05/13 08:33:56;;;;;;;13.97;11.63;;;20.20;99.90;;;;;;5021412;28;20202;-80
2021/05/13 08:36:21;;;;;;;12.03;9.53;;;20.10;99.90;;;;;;5023496;28;20178;-80
2021/05/13 08:38:47;;;;;;;10.57;9.57;;;19.90;99.90;;;;;;5021975;28;20219;-80
2021/05/13 08:41:13;;;;;;;11.77;9.10;;;19.80;99.90;;;;;;5022886;28;20266;-80
2021/05/13 08:43:42;;;;;;;10.67;9.33;;;19.80;99.90;;;;;;5037833;28;20205;-79
2021/05/13 08:46:08;;;;;;;15.17;9.67;;;19.90;99.90;;;;;;5023423;28;20182;-78
2021/05/13 08:48:34;;;;;;;12.00;9.83;;;19.80;99.90;;;;;;5022317;28;20194;-79
2021/05/13 08:51:00;;;;;;;12.57;9.37;;;19.80;99.90;;;;;;5037748;28;20243;-78
2021/05/13 08:53:28;;;;;;;9.73;8.73;;;19.80;99.90;;;;;;5038166;28;20645;-78
2021/05/13 08:55:55;;;;;;;10.33;9.23;;;19.70;99.90;;;;;;5038450;28;20652;-79
2021/05/13 08:58:21;;;;;;;11.07;9.20;;;19.30;99.90;;;;;;5022508;28;20200;-78
2021/05/13 09:00:53;;;;;;;11.47;9.57;;;19.10;99.90;;;;;;5057406;28;20198;-80
2021/05/13 09:03:35;;;;;;;9.80;8.80;;;18.90;99.90;;;;;;5019470;28;20182;-77
2021/05/13 09:06:03;;;;;;;13.00;9.00;;;18.70;99.90;;;;;;5036583;28;20171;-79
2021/05/13 09:08:29;;;;;;;11.67;9.00;;;18.60;99.90;;;;;;5036686;28;20228;-78
2021/05/13 09:10:57;;;;;;;11.83;9.57;;;18.50;99.90;;;;;;5022636;28;20182;-78
2021/05/13 09:13:29;;;;;;;12.53;8.83;;;18.30;99.90;;;;;;5039560;28;20233;-78
2021/05/13 09:15:56;;;;;;;10.53;8.60;;;18.20;99.90;;;;;;5040243;28;20174;-80
2021/05/13 09:18:31;;;;;;;14.37;11.80;;;18.30;99.90;;;;;;5043589;28;20699;-80
2021/05/13 09:21:03;;;;;;;13.73;10.67;;;18.20;99.90;;;;;;5044547;28;20174;-78
2021/05/13 09:23:28;;;;;;;10.07;8.67;;;18.10;99.90;;;;;;5028528;28;20177;-79
2021/05/13 09:26:13;;;;;;;12.60;9.17;;;18.00;99.90;;;;;;5023446;28;20637;-79
2021/05/13 09:28:39;;;;;;;12.33;9.07;;;18.10;99.90;;;;;;5040701;28;20229;-80
2021/05/13 09:31:05;;;;;;;13.27;9.63;;;18.20;99.90;;;;;;5023552;28;20170;-80
2021/05/13 09:33:33;;;;;;;10.73;8.67;;;18.30;99.90;;;;;;5040237;28;20547;-81
2021/05/13 09:36:20;;;;;;;10.57;9.37;;;18.20;99.90;;;;;;5024483;28;20177;-79
2021/05/13 09:38:46;;;;;;;10.07;8.83;;;18.20;99.90;;;;;;5024470;28;20308;-80
2021/05/13 09:41:11;;;;;;;10.30;9.03;;;18.20;99.90;;;;;;5040615;28;20198;-80
2021/05/13 09:43:38;;;;;;;12.60;8.67;;;18.40;99.90;;;;;;5023254;28;20181;-79
2021/05/13 09:46:06;;;;;;;12.17;9.43;;;18.40;99.90;;;;;;5022942;28;20186;-80
2021/05/13 09:48:41;;;;;;;11.87;9.20;;;18.30;99.90;;;;;;5020236;28;20241;-78
2021/05/13 09:51:38;;;;;;;11.30;9.07;;;18.30;99.90;;;;;;5037971;28;20521;-77
2021/05/13 09:54:06;;;;;;;10.97;9.23;;;18.10;99.90;;;;;;5022040;28;20198;-77
2021/05/13 09:56:32;;;;;;;12.70;9.70;;;18.20;99.90;;;;;;5037750;28;20167;-77
2021/05/13 09:58:57;;;;;;;11.07;9.20;;;18.10;99.90;;;;;;5037911;28;20274;-78
2021/05/13 10:01:27;;;;;;;13.20;10.13;;;18.10;99.90;;;;;;5021946;28;20189;-77
2021/05/13 10:03:55;;;;;;;10.63;8.90;;;18.10;99.90;;;;;;5038731;28;20183;-77
2021/05/13 10:06:21;;;;;;;11.63;9.13;;;18.00;99.90;;;;;;5037823;28;20178;-77
2021/05/13 10:08:46;;;;;;;11.53;9.27;;;18.10;99.90;;;;;;5020984;28;20203;-77
2021/05/13 10:11:14;;;;;;;12.33;9.53;;;18.00;99.90;;;;;;5037601;28;20675;-77
2021/05/13 10:13:40;;;;;;;13.03;9.33;;;17.90;99.90;;;;;;5037152;28;20209;-77
2021/05/13 10:16:07;;;;;;;12.83;9.03;;;18.00;99.90;;;;;;5036796;28;20166;-78
2021/05/13 10:18:45;;;;;;;12.30;8.83;;;18.10;99.90;;;;;;5036952;28;20201;-78
2021/05/13 10:21:22;;;;;;;13.00;8.63;;;18.10;99.90;;;;;;5020103;28;20198;-78
2021/05/13 10:23:49;;;;;;;10.83;8.43;;;18.00;99.90;;;;;;5036601;28;20179;-78
2021/05/13 10:26:32;;;;;;;10.33;8.73;;;17.90;99.90;;;;;;5018703;28;20174;-78
2021/05/13 10:28:58;;;;;;;14.00;9.33;;;17.90;99.90;;;;;;5039455;28;20212;-78
2021/05/13 10:31:39;;;;;;;10.47;8.90;;;17.90;99.90;;;;;;5024017;28;20645;-78
2021/05/13 10:34:04;;;;;;;11.57;9.20;;;17.70;99.90;;;;;;5053093;28;20194;-78
2021/05/13 10:36:32;;;;;;;16.07;10.10;;;17.50;99.90;;;;;;5022694;28;20175;-79
2021/05/13 10:39:11;;;;;;;12.27;9.73;;;17.40;99.90;;;;;;5008483;28;20217;-77
2021/05/13 10:41:44;;;;;;;12.40;9.57;;;17.30;99.90;;;;;;5048186;23;20229;-79
2021/05/13 10:44:09;;;;;;;14.10;10.53;;;17.20;99.90;;;;;;5038153;28;20198;-76
2021/05/13 10:46:38;;;;;;;12.13;9.53;;;17.20;99.90;;;;;;5073351;28;20291;-77
2021/05/13 10:49:17;;;;;;;15.97;10.73;;;17.40;99.90;;;;;;5039363;28;20648;-76
2021/05/13 10:51:43;;;;;;;14.93;10.90;;;17.80;99.90;;;;;;5015478;28;20528;-78
2021/05/13 10:54:09;;;;;;;15.67;11.47;;;18.10;99.90;;;;;;5032503;28;20305;-77
2021/05/13 10:56:35;;;;;;;17.23;10.90;;;18.40;99.90;;;;;;5014597;28;20518;-77
2021/05/13 10:59:07;;;;;;;14.00;11.03;;;18.70;99.90;;;;;;5032780;28;20586;-77
2021/05/13 11:01:52;;;;;;;15.93;10.20;;;19.00;99.90;;;;;;5039293;28;20215;-77
2021/05/13 11:04:21;;;;;;;17.00;11.43;;;19.30;99.90;;;;;;5064737;28;20194;-77
2021/05/13 11:06:50;;;;;;;14.40;10.87;;;19.40;99.90;;;;;;5066557;28;20213;-77
2021/05/13 11:12:14;;;;;;;14.00;10.80;;;19.40;99.90;;;;;;5038833;28;20210;-77
2021/05/13 11:20:20;;;;;;;11.23;9.63;;;19.40;99.90;;;;;;5032762;28;20179;-77
2021/05/13 11:23:12;;;;;;;12.93;9.87;;;19.20;99.90;;;;;;5015032;28;20190;-77
2021/05/13 11:25:49;;;;;;;9.97;8.97;;;19.20;99.90;;;;;;5031622;28;20211;-77
2021/05/13 11:28:32;;;;;;;9.73;8.10;;;19.20;99.90;;;;;;5031483;28;20659;-76
2021/05/13 11:31:03;;;;;;;10.90;7.53;;;19.20;99.90;;;;;;5030960;28;20197;-77
2021/05/13 11:33:37;;;;;;;10.40;8.03;;;19.30;99.90;;;;;;5030526;28;20215;-77
2021/05/13 11:36:04;;;;;;;9.10;7.83;;;19.30;99.90;;;;;;5031512;28;20226;-77
2021/05/13 11:38:30;;;;;;;11.53;9.03;;;19.40;99.90;;;;;;5031953;28;20181;-77
2021/05/13 11:40:56;;;;;;;10.83;9.23;;;19.30;99.90;;;;;;5015078;28;20195;-77
2021/05/13 11:43:27;;;;;;;11.43;8.27;;;19.30;99.90;;;;;;5031958;28;20201;-78
2021/05/13 11:45:54;;;;;;;11.33;8.00;;;19.30;99.90;;;;;;5030933;28;20175;-77
2021/05/13 11:48:24;;;;;;;9.40;7.07;;;19.40;99.90;;;;;;5014150;28;20178;-77
2021/05/13 11:50:50;;;;;;;8.50;7.03;;;19.40;99.90;;;;;;5046666;28;20224;-78
2021/05/13 11:53:16;;;;;;;8.30;6.77;;;19.60;99.90;;;;;;5030789;28;20206;-78
2021/05/13 11:55:43;;;;;;;8.13;7.13;;;19.60;99.90;;;;;;5014267;28;20200;-78
2021/05/13 11:58:09;;;;;;;10.20;6.20;;;19.60;99.90;;;;;;5047552;28;20193;-76
2021/05/13 12:00:38;;;;;;;8.97;6.63;;;19.80;99.90;;;;;;5013588;28;20253;-76
2021/05/13 12:03:14;;;;;;;10.40;6.60;;;19.90;99.90;;;;;;5014231;28;20191;-77
2021/05/13 12:05:53;;;;;;;9.63;6.73;;;19.80;99.90;;;;;;5030523;28;20178;-77
2021/05/13 12:08:20;;;;;;;9.27;6.00;;;19.70;99.90;;;;;;5030493;28;20162;-78
2021/05/13 12:10:46;;;;;;;9.13;6.33;;;19.60;99.90;;;;;;5015894;28;20628;-78
2021/05/13 12:13:11;;;;;;;8.50;6.70;;;19.80;99.90;;;;;;5014771;28;20344;-77
2021/05/13 12:15:37;;;;;;;7.43;5.40;;;20.00;99.90;;;;;;5040434;28;20190;-78
2021/05/13 12:18:03;;;;;;;10.63;5.90;;;20.00;99.90;;;;;;5032607;28;20175;-78
2021/05/13 12:20:31;;;;;;;7.80;6.17;;;20.10;99.90;;;;;;5015995;28;20217;-78
2021/05/13 12:22:57;;;;;;;8.47;6.03;;;20.10;99.90;;;;;;5026951;28;20186;-79
2021/05/13 12:25:22;;;;;;;7.97;6.50;;;20.10;99.90;;;;;;5034512;28;20209;-78
2021/05/13 12:27:48;;;;;;;8.47;6.13;;;19.90;99.90;;;;;;5035925;28;20178;-79
2021/05/13 12:30:16;;;;;;;8.63;5.53;;;19.80;99.90;;;;;;5019507;28;20178;-79
2021/05/13 12:32:42;;;;;;;8.93;5.30;;;19.60;99.90;;;;;;5023450;28;20297;-78
2021/05/13 12:35:29;;;;;;;6.80;5.20;;;19.60;99.90;;;;;;5008972;28;20252;-78
2021/05/13 12:38:13;;;;;;;9.73;5.70;;;19.60;99.90;;;;;;5017973;28;20214;-78
2021/05/13 12:40:39;;;;;;;8.10;6.03;;;19.60;99.90;;;;;;5016461;28;20182;-79
2021/05/13 12:43:16;;;;;;;7.87;5.60;;;19.80;99.90;;;;;;5017188;28;20247;-77
2021/05/13 12:45:51;;;;;;;7.97;5.37;;;19.60;99.90;;;;;;5016514;28;20170;-78